Time;durP1;ratioP1;P1;durP2;ratioP2;P2;SDS_P1;SDS_P2;PMS_P1;PMS_P2;Temp;Humidity;BMP_temperature;BMP_pressure;BME280_temperature;BME280_humidity;BME280_pressure;Samples;Min_cycle;Max_cycle;Signal;HPM_P1;HPM_P2
2022/05/07 00:02:16;;;;;;;;;;;;;;;11.80;57.25;100219.06;5006635;28;2053;-95
2022/05/07 00:04:43;;;;;;;;;;;;;;;11.79;57.16;100212.84;5004993;28;4968;-95
2022/05/07 00:07:09;;;;;;;;;;;;;;;11.79;57.23;100209.28;5012667;28;1676;-95
2022/05/07 00:09:36;;;;;;;;;;;;;;;11.78;57.22;100216.56;5014102;28;2287;-95
2022/05/07 00:12:03;;;;;;;;;;;;;;;11.78;57.29;100211.19;5005962;28;1971;-95
2022/05/07 00:14:29;;;;;;;;;;;;;;;11.79;57.07;100206.59;5004656;28;2492;-95
2022/05/07 00:19:41;;;;;;;;;;;;;;;11.78;57.32;100213.06;4990314;28;2417;-96
2022/05/07 00:22:08;;;;;;;;;;;;;;;11.77;57.09;100217.66;5005119;28;1720;-95
2022/05/07 00:24:34;;;;;;;;;;;;;;;11.76;57.15;100213.28;5004632;28;2015;-96
2022/05/07 00:27:01;;;;;;;;;;;;;;;11.76;57.22;100212.47;5014362;28;1275;-95
2022/05/07 00:29:27;;;;;;;;;;;;;;;11.75;57.28;100217.03;5003881;28;2500;-95
2022/05/07 00:31:54;;;;;;;;;;;;;;;11.74;57.16;100223.50;5001152;28;1515;-96
2022/05/07 00:34:21;;;;;;;;;;;;;;;11.75;57.14;100213.53;5000540;28;3518;-94
2022/05/07 00:36:48;;;;;;;;;;;;;;;11.74;57.27;100207.31;5011854;28;1192;-95
2022/05/07 00:39:15;;;;;;;;;;;;;;;11.73;57.25;100211.06;5013214;28;2491;-95
2022/05/07 00:41:42;;;;;;;;;;;;;;;11.72;57.18;100214.81;5012232;28;2867;-95
2022/05/07 00:44:08;;;;;;;;;;;;;;;11.73;57.40;100212.94;4998501;28;5085;-95
2022/05/07 00:46:35;;;;;;;;;;;;;;;11.72;57.36;100217.53;5005327;28;2332;-95
2022/05/07 00:49:01;;;;;;;;;;;;;;;11.72;57.29;100216.69;5013450;28;2080;-95
2022/05/07 00:51:33;;;;;;;;;;;;;;;11.70;57.32;100216.94;5012849;28;1955;-96
2022/05/07 00:53:59;;;;;;;;;;;;;;;11.70;57.21;100208.81;5004599;28;2604;-96
2022/05/07 00:56:26;;;;;;;;;;;;;;;11.70;57.10;100214.22;5009568;28;2144;-95
2022/05/07 00:58:52;;;;;;;;;;;;;;;11.71;57.12;100226.69;4984267;28;2423;-95
2022/05/07 01:01:19;;;;;;;;;;;;;;;11.69;57.14;100226.09;5001417;28;2066;-95
2022/05/07 01:03:46;;;;;;;;;;;;;;;11.70;57.06;100218.81;5000348;28;3585;-95
2022/05/07 01:06:13;;;;;;;;;;;;;;;11.70;57.22;100221.50;5009475;28;2105;-95
2022/05/07 01:08:40;;;;;;;;;;;;;;;11.68;57.08;100210.97;5013694;28;1910;-95
2022/05/07 01:11:07;;;;;;;;;;;;;;;11.67;57.21;100220.09;4996579;28;1919;-95
2022/05/07 01:13:33;;;;;;;;;;;;;;;11.68;57.09;100220.94;4995771;28;4704;-94
2022/05/07 01:16:00;;;;;;;;;;;;;;;11.67;57.28;100222.78;5008881;28;1854;-96
2022/05/07 01:18:26;;;;;;;;;;;;;;;11.67;57.25;100224.66;5019863;28;3684;-95
2022/05/07 01:20:53;;;;;;;;;;;;;;;11.66;57.07;100221.16;5013181;28;4006;-95
2022/05/07 01:23:19;;;;;;;;;;;;;;;11.66;57.34;100220.34;5017654;28;1912;-95
2022/05/07 01:25:46;;;;;;;;;;;;;;;11.65;57.02;100224.91;5016672;28;2100;-95
2022/05/07 01:28:13;;;;;;;;;;;;;;;11.65;57.06;100221.38;5009962;28;3784;-95
2022/05/07 01:30:39;;;;;;;;;;;;;;;11.64;57.07;100227.84;5009153;28;2474;-95
2022/05/07 01:33:06;;;;;;;;;;;;;;;11.64;57.15;100225.13;5013748;28;2335;-95
2022/05/07 01:35:32;;;;;;;;;;;;;;;11.63;57.02;100229.72;5006081;28;1806;-95
2022/05/07 01:37:59;;;;;;;;;;;;;;;11.62;57.22;100216.44;5012495;28;2359;-95
2022/05/07 01:40:25;;;;;;;;;;;;;;;11.60;56.99;100220.22;4994756;28;2765;-95
2022/05/07 01:42:52;;;;;;;;;;;;;;;11.61;57.18;100221.03;5015622;28;2335;-95
2022/05/07 01:45:19;;;;;;;;;;;;;;;11.62;57.01;100227.25;4994258;28;2254;-95
2022/05/07 01:50:29;;;;;;;;;;;;;;;11.59;56.98;100234.78;5005125;28;1535;-94
2022/05/07 01:53:02;;;;;;;;;;;;;;;11.59;57.17;100231.25;5006269;28;2354;-95
2022/05/07 01:55:29;;;;;;;;;;;;;;;11.59;57.13;100234.78;5008247;28;1712;-95
2022/05/07 01:57:55;;;;;;;;;;;;;;;11.58;57.02;100233.09;5013702;28;2917;-95
2022/05/07 02:00:22;;;;;;;;;;;;;;;11.57;57.07;100234.16;4990799;28;2356;-94
2022/05/07 02:02:49;;;;;;;;;;;;;;;11.58;57.06;100233.09;4996907;28;2526;-95
2022/05/07 02:05:16;;;;;;;;;;;;;;;11.56;57.09;100235.25;5004693;28;3932;-95
2022/05/07 02:07:42;;;;;;;;;;;;;;;11.58;57.02;100232.28;5010018;28;1879;-94
2022/05/07 02:10:09;;;;;;;;;;;;;;;11.56;57.05;100232.53;5020024;28;3526;-95
2022/05/07 02:12:35;;;;;;;;;;;;;;;11.55;57.05;100230.06;5013202;28;3181;-95
2022/05/07 02:15:02;;;;;;;;;;;;;;;11.55;56.91;100236.28;5015190;28;1428;-95
2022/05/07 02:17:28;;;;;;;;;;;;;;;11.55;56.96;100238.16;4997341;28;1252;-95
2022/05/07 02:19:55;;;;;;;;;;;;;;;11.54;56.93;100239.22;5003246;28;2541;-95
2022/05/07 02:22:21;;;;;;;;;;;;;;;11.53;56.93;100241.09;5017048;28;1695;-95
2022/05/07 02:24:48;;;;;;;;;;;;;;;11.53;56.92;100245.66;5009740;28;5073;-95
2022/05/07 02:27:14;;;;;;;;;;;;;;;11.53;57.05;100242.94;5017624;28;1213;-95
2022/05/07 02:29:41;;;;;;;;;;;;;;;11.52;56.87;100247.53;5016958;28;2103;-95
2022/05/07 02:32:07;;;;;;;;;;;;;;;11.51;56.89;100245.91;5001201;28;2557;-95
2022/05/07 02:34:34;;;;;;;;;;;;;;;11.50;56.85;100241.56;5012555;28;2746;-95
2022/05/07 02:37:00;;;;;;;;;;;;;;;11.50;56.77;100244.25;5016427;28;1749;-95
2022/05/07 02:39:27;;;;;;;;;;;;;;;11.49;56.81;100245.31;5011941;28;1991;-95
2022/05/07 02:44:38;;;;;;;;;;;;;;;11.48;56.96;100242.84;5007680;28;1868;-95
2022/05/07 02:47:04;;;;;;;;;;;;;;;11.47;56.83;100239.34;5000415;28;1631;-95
2022/05/07 02:49:31;;;;;;;;;;;;;;;11.46;56.91;100253.84;5001595;28;3484;-95
2022/05/07 02:51:58;;;;;;;;;;;;;;;11.47;57.00;100254.66;5013488;28;1606;-95
2022/05/07 02:54:24;;;;;;;;;;;;;;;11.45;56.69;100256.81;5024092;28;1968;-94
2022/05/07 02:56:51;;;;;;;;;;;;;;;11.44;56.74;100255.13;5015917;28;1196;-95
2022/05/07 02:59:17;;;;;;;;;;;;;;;11.44;56.72;100260.53;5009086;28;2251;-95
2022/05/07 03:01:44;;;;;;;;;;;;;;;11.43;56.93;100265.09;5014845;28;2056;-95
2022/05/07 03:04:10;;;;;;;;;;;;;;;11.43;56.93;100264.28;5007097;28;3542;-95
2022/05/07 03:06:37;;;;;;;;;;;;;;;11.43;56.75;100272.38;5018412;28;1148;-96
2022/05/07 03:09:03;;;;;;;;;;;;;;;11.43;56.81;100280.47;5011207;28;2192;-95
2022/05/07 03:11:33;;;;;;;;;;;;;;;11.41;56.95;100277.19;5016146;28;1570;-95
2022/05/07 03:14:00;;;;;;;;;;;;;;;11.40;56.72;100287.16;5003709;28;4704;-96
2022/05/07 03:16:27;;;;;;;;;;;;;;;11.39;56.83;100292.78;4983772;28;2100;-96
2022/05/07 03:18:53;;;;;;;;;;;;;;;11.39;56.69;100287.41;4999327;28;1716;-94
2022/05/07 03:21:20;;;;;;;;;;;;;;;11.37;56.79;100293.81;4996331;28;1201;-95
2022/05/07 03:23:46;;;;;;;;;;;;;;;11.36;56.70;100292.19;5004302;28;2414;-95
2022/05/07 03:26:13;;;;;;;;;;;;;;;11.36;56.85;100296.75;5008132;28;2741;-95
2022/05/07 03:28:39;;;;;;;;;;;;;;;11.36;56.81;100296.75;5005139;28;2214;-95
2022/05/07 03:31:06;;;;;;;;;;;;;;;11.35;57.01;100295.09;5014690;28;1482;-94
2022/05/07 03:33:33;;;;;;;;;;;;;;;11.33;56.69;100303.44;5008415;28;2414;-95
2022/05/07 03:35:59;;;;;;;;;;;;;;;11.33;56.65;100306.13;4995393;28;1285;-95
2022/05/07 03:38:26;;;;;;;;;;;;;;;11.32;56.85;100304.50;4998768;28;4638;-95
2022/05/07 03:40:52;;;;;;;;;;;;;;;11.32;56.65;100315.28;5007084;28;1237;-95
2022/05/07 03:43:19;;;;;;;;;;;;;;;11.31;56.70;100319.00;5007424;28;1225;-95
2022/05/07 03:45:46;;;;;;;;;;;;;;;11.31;56.74;100326.28;5013291;28;2414;-95
2022/05/07 03:48:12;;;;;;;;;;;;;;;11.30;56.73;100328.16;5008564;28;4675;-95
2022/05/07 03:50:39;;;;;;;;;;;;;;;11.30;56.68;100327.34;5006113;28;2053;-96
2022/05/07 03:55:49;;;;;;;;;;;;;;;11.27;56.71;100339.41;4996900;28;4946;-95
2022/05/07 03:58:17;;;;;;;;;;;;;;;11.27;56.63;100343.97;5002133;28;2300;-95
2022/05/07 04:00:43;;;;;;;;;;;;;;;11.26;56.62;100343.13;5019666;28;1737;-96
2022/05/07 04:03:10;;;;;;;;;;;;;;;11.25;56.74;100346.88;4996644;28;4984;-96
2022/05/07 04:05:36;;;;;;;;;;;;;;;11.25;56.66;100340.69;4998425;28;1486;-96
2022/05/07 04:08:03;;;;;;;;;;;;;;;11.24;56.59;100336.34;5014327;28;2214;-96
2022/05/07 04:10:29;;;;;;;;;;;;;;;11.23;56.86;100337.38;5013846;28;1979;-96
2022/05/07 04:12:56;;;;;;;;;;;;;;;11.22;56.60;100350.03;5012052;28;3773;-95
2022/05/07 04:15:23;;;;;;;;;;;;;;;11.21;56.60;100352.97;5005878;28;3442;-95
2022/05/07 04:17:49;;;;;;;;;;;;;;;11.21;56.59;100358.38;4996344;28;2256;-95
2022/05/07 04:20:16;;;;;;;;;;;;;;;11.21;56.65;100361.06;5013481;28;1531;-96
2022/05/07 04:22:42;;;;;;;;;;;;;;;11.20;56.69;100364.78;5013349;28;2417;-96
2022/05/07 04:25:09;;;;;;;;;;;;;;;11.20;56.62;100370.19;4996251;28;2037;-96
2022/05/07 04:27:35;;;;;;;;;;;;;;;11.19;56.69;100368.56;5013475;28;2518;-96
2022/05/07 04:30:02;;;;;;;;;;;;;;;11.18;56.67;100370.44;5002477;28;4790;-95
2022/05/07 04:32:28;;;;;;;;;;;;;;;11.17;56.56;100376.84;5011181;28;1556;-95
2022/05/07 04:34:55;;;;;;;;;;;;;;;11.18;56.55;100377.66;5002794;28;3167;-96
2022/05/07 04:37:21;;;;;;;;;;;;;;;11.17;56.59;100376.03;5014618;28;1193;-96
2022/05/07 04:39:48;;;;;;;;;;;;;;;11.15;56.62;100384.38;5017487;28;1880;-95
2022/05/07 04:42:14;;;;;;;;;;;;;;;11.13;56.56;100370.28;5011144;28;2427;-96
2022/05/07 04:44:41;;;;;;;;;;;;;;;11.13;56.54;100386.47;5004743;28;4679;-95
2022/05/07 04:47:07;;;;;;;;;;;;;;;11.12;56.45;100391.03;4999938;28;1127;-96
2022/05/07 04:49:35;;;;;;;;;;;;;;;11.11;56.61;100399.34;5010412;28;3688;-96
2022/05/07 04:52:01;;;;;;;;;;;;;;;11.10;56.61;100397.69;5014442;28;1490;-95
2022/05/07 04:54:28;;;;;;;;;;;;;;;11.08;56.68;100411.38;5007410;28;2694;-95
2022/05/07 04:56:54;;;;;;;;;;;;;;;11.08;56.64;100414.06;5014015;28;1220;-96
2022/05/07 04:59:21;;;;;;;;;;;;;;;11.08;56.60;100418.66;5003411;28;2538;-96
2022/05/07 05:01:47;;;;;;;;;;;;;;;11.05;56.60;100430.69;4998400;28;1216;-95
2022/05/07 05:04:14;;;;;;;;;;;;;;;11.05;56.67;100430.69;4998664;28;2717;-96
2022/05/07 05:06:40;;;;;;;;;;;;;;;11.05;56.60;100429.88;4994169;28;1613;-96
2022/05/07 05:09:07;;;;;;;;;;;;;;;11.04;56.45;100434.44;5006319;28;1927;-96
2022/05/07 05:11:34;;;;;;;;;;;;;;;11.04;56.53;100433.63;4994796;28;1590;-96
2022/05/07 05:14:00;;;;;;;;;;;;;;;11.03;56.42;100435.50;5005748;28;2716;-96
2022/05/07 05:16:27;;;;;;;;;;;;;;;11.03;56.54;100437.38;5013182;28;2027;-96
2022/05/07 05:18:53;;;;;;;;;;;;;;;11.01;56.43;100434.09;5006125;28;2386;-96
2022/05/07 05:21:20;;;;;;;;;;;;;;;11.00;56.58;100437.81;5014098;28;1653;-95
2022/05/07 05:23:47;;;;;;;;;;;;;;;10.99;56.45;100452.34;5002431;28;2579;-96
2022/05/07 05:26:13;;;;;;;;;;;;;;;10.99;56.51;100445.06;4998608;28;4771;-96
2022/05/07 05:28:40;;;;;;;;;;;;;;;10.99;56.53;100446.97;5004174;28;1911;-96
2022/05/07 05:31:06;;;;;;;;;;;;;;;10.98;56.42;100465.00;5013888;28;1219;-96
2022/05/07 05:33:33;;;;;;;;;;;;;;;11.00;56.38;100470.16;5008193;28;2568;-96
2022/05/07 05:35:59;;;;;;;;;;;;;;;10.99;56.38;100476.59;5015099;28;1677;-96
2022/05/07 05:38:26;;;;;;;;;;;;;;;10.99;56.25;100472.03;5012572;28;2057;-96
2022/05/07 05:40:53;;;;;;;;;;;;;;;10.99;56.26;100487.38;5018762;28;2174;-96
2022/05/07 05:43:19;;;;;;;;;;;;;;;10.99;56.37;100484.69;5008222;28;2808;-96
2022/05/07 05:45:46;;;;;;;;;;;;;;;10.98;56.30;100488.44;5007350;28;1554;-96
2022/05/07 05:48:13;;;;;;;;;;;;;;;10.97;56.05;100493.00;5010866;28;2492;-96
2022/05/07 05:50:39;;;;;;;;;;;;;;;10.97;56.04;100503.78;5010554;28;2023;-96
2022/05/07 05:53:07;;;;;;;;;;;;;;;10.97;55.92;100498.41;4998833;28;2201;-96
2022/05/07 05:55:33;;;;;;;;;;;;;;;10.97;55.90;100509.19;5009106;28;2715;-96
2022/05/07 05:58:00;;;;;;;;;;;;;;;10.97;55.96;100522.66;4995310;28;2356;-96
2022/05/07 06:00:27;;;;;;;;;;;;;;;10.97;55.83;100532.56;4988935;28;1461;-96
2022/05/07 06:02:53;;;;;;;;;;;;;;;10.96;55.90;100522.84;5015113;28;2154;-96
2022/05/07 06:05:20;;;;;;;;;;;;;;;10.95;55.91;100532.81;5009192;28;1851;-96
2022/05/07 06:07:46;;;;;;;;;;;;;;;10.95;55.86;100535.50;5010008;28;2382;-96
2022/05/07 06:10:13;;;;;;;;;;;;;;;10.94;55.85;100550.00;5002735;28;3568;-96
2022/05/07 06:12:40;;;;;;;;;;;;;;;10.95;55.85;100546.28;5016054;28;2063;-96
2022/05/07 06:15:07;;;;;;;;;;;;;;;10.94;55.70;100552.72;5002494;28;1339;-96
2022/05/07 06:17:34;;;;;;;;;;;;;;;10.94;55.83;100557.28;4998781;28;1611;-96
2022/05/07 06:20:01;;;;;;;;;;;;;;;10.94;55.94;100555.41;5006173;28;2840;-96
2022/05/07 06:22:27;;;;;;;;;;;;;;;10.94;55.92;100557.28;5003717;28;4787;-96
2022/05/07 06:27:39;;;;;;;;;;;;;;;10.93;55.35;100572.63;5009089;28;3721;-96
2022/05/07 06:30:06;;;;;;;;;;;;;;;10.93;55.09;100583.41;5014436;28;2206;-96
2022/05/07 06:32:33;;;;;;;;;;;;;;;10.93;55.22;100586.09;5006182;28;2191;-95
2022/05/07 06:34:59;;;;;;;;;;;;;;;10.93;55.24;100583.41;5008976;28;2563;-96
2022/05/07 06:37:26;;;;;;;;;;;;;;;10.91;55.34;100586.34;5009095;28;1933;-96
2022/05/07 06:39:52;;;;;;;;;;;;;;;10.92;55.17;100584.47;5016865;28;3731;-96
2022/05/07 06:42:19;;;;;;;;;;;;;;;10.93;55.04;100596.06;5017941;28;2168;-96
2022/05/07 06:44:46;;;;;;;;;;;;;;;10.92;54.83;100597.94;5015463;28;2734;-96
2022/05/07 06:47:12;;;;;;;;;;;;;;;10.93;54.93;100606.84;5017784;28;2497;-96
2022/05/07 06:49:39;;;;;;;;;;;;;;;10.91;54.98;100597.13;5016405;28;2301;-96
2022/05/07 06:52:05;;;;;;;;;;;;;;;10.92;55.11;100600.63;5003568;28;2274;-96
2022/05/07 06:54:32;;;;;;;;;;;;;;;10.91;54.91;100601.66;5004128;28;3806;-96
2022/05/07 06:56:59;;;;;;;;;;;;;;;10.91;54.92;100609.75;5007755;28;3940;-96
2022/05/07 06:59:26;;;;;;;;;;;;;;;10.91;54.63;100615.13;5004117;28;2375;-96
2022/05/07 07:01:54;;;;;;;;;;;;;;;10.90;54.98;100614.31;5026500;28;1158;-96
2022/05/07 07:04:20;;;;;;;;;;;;;;;10.91;54.80;100629.44;5008414;28;2959;-96
2022/05/07 07:06:47;;;;;;;;;;;;;;;10.89;54.92;100623.44;5012745;28;2163;-96
2022/05/07 07:09:14;;;;;;;;;;;;;;;10.90;55.09;100629.66;5006369;28;3876;-96
2022/05/07 07:11:40;;;;;;;;;;;;;;;10.90;54.95;100635.03;5080329;23;3655;-96
2022/05/07 07:14:07;;;;;;;;;;;;;;;10.90;54.78;100641.25;5030256;28;1748;-94
2022/05/07 07:16:34;;;;;;;;;;;;;;;10.91;54.75;100642.06;5023762;28;2619;-94
2022/05/07 07:19:00;;;;;;;;;;;;;;;10.89;55.03;100657.66;5021469;28;2492;-94
2022/05/07 07:21:27;;;;;;;;;;;;;;;10.89;55.28;100652.25;5021624;28;1564;-94
2022/05/07 07:23:53;;;;;;;;;;;;;;;10.90;55.42;100659.28;5038164;28;5018;-94
2022/05/07 07:26:20;;;;;;;;;;;;;;;10.89;55.24;100653.09;5019643;28;1599;-95
2022/05/07 07:28:46;;;;;;;;;;;;;;;10.89;55.30;100669.25;5031973;28;2228;-94
2022/05/07 07:31:16;;;;;;;;;;;;;;;10.89;55.05;100660.34;5029065;28;2218;-94
2022/05/07 07:33:42;;;;;;;;;;;;;;;10.90;55.14;100656.59;5028340;28;3889;-93
2022/05/07 07:36:09;;;;;;;;;;;;;;;10.89;54.88;100660.34;5030251;28;2162;-94
2022/05/07 07:38:37;;;;;;;;;;;;;;;10.89;55.30;100669.25;5017558;28;1898;-94
2022/05/07 07:41:03;;;;;;;;;;;;;;;10.90;55.10;100673.59;5033276;28;3279;-94
2022/05/07 07:43:31;;;;;;;;;;;;;;;10.91;54.94;100688.72;5032108;28;2515;-94
2022/05/07 07:48:42;;;;;;;;;;;;;;;10.91;54.80;100693.28;5031733;28;2541;-93
2022/05/07 07:51:09;;;;;;;;;;;;;;;10.91;54.64;100688.72;5030295;28;2238;-94
2022/05/07 07:53:36;;;;;;;;;;;;;;;10.91;54.55;100701.34;5028869;28;2269;-95
2022/05/07 07:56:03;;;;;;;;;;;;;;;10.90;54.72;100695.16;5042972;28;1871;-94
2022/05/07 07:58:29;;;;;;;;;;;;;;;10.93;54.72;100703.84;5038866;28;4809;-95
2022/05/07 08:00:56;;;;;;;;;;;;;;;10.90;54.67;100711.31;5025883;28;2105;-94
2022/05/07 08:03:22;;;;;;;;;;;;;;;10.91;54.69;100712.13;5030325;28;2490;-93
2022/05/07 08:05:49;;;;;;;;;;;;;;;10.91;54.62;100710.28;5038374;28;2463;-96
2022/05/07 08:13:44;;;;;;;;;;;;;;;10.92;54.54;100713.81;5022780;28;2486;-94
2022/05/07 08:16:11;;;;;;;;;;;;;;;10.91;54.84;100704.91;5029831;28;2149;-94
2022/05/07 08:18:37;;;;;;;;;;;;;;;10.92;54.63;100716.50;5026375;28;3896;-94
2022/05/07 08:21:04;;;;;;;;;;;;;;;10.91;54.55;100710.28;5033445;28;2503;-94
2022/05/07 08:23:30;;;;;;;;;;;;;;;10.91;54.71;100715.69;5031956;28;3584;-94
2022/05/07 08:26:01;;;;;;;;;;;;;;;10.93;54.85;100720.84;5033426;28;3876;-94
2022/05/07 08:28:28;;;;;;;;;;;;;;;10.93;54.59;100717.31;5026889;28;2174;-94
2022/05/07 08:30:54;;;;;;;;;;;;;;;10.93;54.75;100726.22;5028592;28;2350;-95
2022/05/07 08:33:21;;;;;;;;;;;;;;;10.93;54.67;100728.91;5028004;28;2519;-95
2022/05/07 08:35:47;;;;;;;;;;;;;;;10.93;54.64;100734.31;5042715;28;2129;-95
2022/05/07 08:38:14;;;;;;;;;;;;;;;10.94;54.53;100724.34;5026920;28;2349;-95
2022/05/07 08:40:41;;;;;;;;;;;;;;;10.94;54.72;100729.75;5026558;28;2481;-96
2022/05/07 08:43:07;;;;;;;;;;;;;;;10.95;54.51;100736.81;5025091;28;4288;-95
2022/05/07 08:45:33;;;;;;;;;;;;;;;10.95;54.62;100734.09;5021806;28;1529;-96
2022/05/07 08:48:00;;;;;;;;;;;;;;;10.95;54.57;100740.31;5029302;28;1846;-96
2022/05/07 08:50:27;;;;;;;;;;;;;;;10.95;54.45;100748.41;5026367;28;2864;-95
2022/05/07 08:53:11;;;;;;;;;;;;;;;10.94;54.91;100745.91;5104630;27;2284;-93
2022/05/07 08:55:37;;;;;;;;;;;;;;;10.95;54.73;100750.28;5091324;28;2684;-94
2022/05/07 08:58:03;;;;;;;;;;;;;;;10.94;54.56;100746.72;5128920;27;3347;-95
2022/05/07 09:00:30;;;;;;;;;;;;;;;10.95;54.64;100751.09;5116476;27;2354;-93
2022/05/07 09:02:56;;;;;;;;;;;;;;;10.96;54.83;100762.69;5114209;28;2374;-94
2022/05/07 09:05:23;;;;;;;;;;;;;;;10.96;54.56;100760.00;5092245;28;1210;-94
2022/05/07 09:07:50;;;;;;;;;;;;;;;10.96;54.75;100757.31;5088518;28;2411;-94
2022/05/07 09:10:16;;;;;;;;;;;;;;;10.96;54.85;100757.31;5088670;28;4118;-95
2022/05/07 09:12:43;;;;;;;;;;;;;;;10.96;54.94;100757.31;5123378;28;2084;-94
2022/05/07 09:15:09;;;;;;;;;;;;;;;10.97;54.66;100756.25;5088596;28;1174;-94
2022/05/07 09:17:35;;;;;;;;;;;;;;;10.98;54.65;100755.22;5108225;28;2492;-95
2022/05/07 09:20:02;;;;;;;;;;;;;;;10.98;54.59;100752.53;5076810;28;4211;-93
2022/05/07 09:22:29;;;;;;;;;;;;;;;10.98;54.77;100756.06;5115988;28;1296;-93
2022/05/07 09:24:55;;;;;;;;;;;;;;;10.98;55.20;100764.13;5082263;28;2752;-95
2022/05/07 09:27:22;;;;;;;;;;;;;;;11.00;55.07;100761.22;5114727;28;2175;-93
2022/05/07 09:29:48;;;;;;;;;;;;;;;10.98;55.00;100758.75;5115362;28;2007;-92
2022/05/07 09:32:15;;;;;;;;;;;;;;;11.00;55.25;100763.91;5110631;28;1919;-93
2022/05/07 09:37:25;;;;;;;;;;;;;;;11.00;55.16;100774.69;5113174;28;2328;-91
2022/05/07 09:39:52;;;;;;;;;;;;;;;11.00;55.18;100775.53;5105903;28;2771;-91
2022/05/07 09:42:19;;;;;;;;;;;;;;;11.01;54.85;100784.44;5111286;28;2062;-90
2022/05/07 09:44:45;;;;;;;;;;;;;;;11.01;55.16;100787.94;5120828;28;2567;-89
2022/05/07 09:47:12;;;;;;;;;;;;;;;11.02;54.92;100780.69;5071557;28;996;-89
2022/05/07 09:50:19;;;;;;;;;;;;;;;11.02;55.21;100786.09;5106835;27;3810;-91
2022/05/07 09:52:25;;;;;;;;;;;;;;;11.02;55.30;100778.00;5069193;28;1988;-90
2022/05/07 09:57:37;;;;;;;;;;;;;;;11.04;55.58;100786.69;5121880;27;2304;-90
2022/05/07 10:00:06;;;;;;;;;;;;;;;11.03;55.55;100785.88;5112260;28;1474;-90
2022/05/07 10:02:32;;;;;;;;;;;;;;;11.04;55.41;100792.09;5121488;28;2707;-90
2022/05/07 10:04:59;;;;;;;;;;;;;;;11.05;55.11;100786.47;5060684;28;2621;-92
2022/05/07 10:07:25;;;;;;;;;;;;;;;11.06;55.07;100787.28;5111123;28;1205;-92
2022/05/07 10:09:52;;;;;;;;;;;;;;;11.07;55.05;100791.66;5096061;28;1983;-91
2022/05/07 10:12:18;;;;;;;;;;;;;;;11.07;55.46;100786.25;5102454;28;1985;-91
2022/05/07 10:14:45;;;;;;;;;;;;;;;11.08;55.51;100796.00;5075175;28;2108;-91
2022/05/07 10:17:12;;;;;;;;;;;;;;;11.08;55.42;100796.81;5076334;28;1210;-91
2022/05/07 10:19:39;;;;;;;;;;;;;;;11.09;55.49;100795.78;5068685;28;2330;-91
2022/05/07 10:22:06;;;;;;;;;;;;;;;11.09;55.24;100801.19;5077486;28;1038;-91
2022/05/07 10:24:33;;;;;;;;;;;;;;;11.10;55.41;100794.72;5099783;28;4185;-91
2022/05/07 10:26:59;;;;;;;;;;;;;;;11.10;55.52;100794.72;5098601;28;1387;-91
2022/05/07 10:29:26;;;;;;;;;;;;;;;11.12;55.69;100797.22;5102947;28;2395;-91
2022/05/07 10:31:53;;;;;;;;;;;;;;;11.13;55.52;100796.16;5091063;28;1905;-91
2022/05/07 10:34:19;;;;;;;;;;;;;;;11.13;55.66;100794.28;5097052;28;4968;-91
2022/05/07 10:36:46;;;;;;;;;;;;;;;11.14;55.78;100795.94;5061665;28;1146;-91
2022/05/07 10:39:13;;;;;;;;;;;;;;;11.16;55.72;100792.22;5100539;28;2095;-91
2022/05/07 10:41:39;;;;;;;;;;;;;;;11.16;55.59;100805.69;5109037;28;1538;-92
2022/05/07 10:44:07;;;;;;;;;;;;;;;11.16;55.62;100803.81;5069434;28;2494;-92
2022/05/07 10:46:33;;;;;;;;;;;;;;;11.17;55.89;100810.84;5103445;28;1314;-91
2022/05/07 10:49:00;;;;;;;;;;;;;;;11.18;55.80;100809.84;5101316;28;4965;-91
2022/05/07 10:51:27;;;;;;;;;;;;;;;11.19;55.70;100808.78;5088352;28;1914;-90
2022/05/07 10:53:56;;;;;;;;;;;;;;;11.21;55.82;100816.66;5098720;28;1946;-90
2022/05/07 10:56:23;;;;;;;;;;;;;;;11.21;55.88;100811.28;5075837;28;1221;-92
2022/05/07 10:58:50;;;;;;;;;;;;;;;11.22;55.62;100807.53;5064140;28;2436;-92
2022/05/07 11:01:17;;;;;;;;;;;;;;;11.23;55.86;100811.88;5095954;28;1305;-91
2022/05/07 11:03:43;;;;;;;;;;;;;;;11.25;56.05;100821.38;5092658;28;4278;-90
2022/05/07 11:06:10;;;;;;;;;;;;;;;11.26;55.97;100809.56;5088772;28;1288;-92
2022/05/07 11:08:36;;;;;;;;;;;;;;;11.27;55.90;100805.00;5101090;28;1755;-91
2022/05/07 11:11:04;;;;;;;;;;;;;;;11.26;55.95;100806.84;5109003;28;4332;-90
2022/05/07 11:13:30;;;;;;;;;;;;;;;11.27;56.13;100805.00;5073093;28;2301;-90
2022/05/07 11:15:57;;;;;;;;;;;;;;;11.29;56.31;100800.19;5089218;28;4075;-91
2022/05/07 11:18:23;;;;;;;;;;;;;;;11.30;56.24;100813.47;5101993;28;2314;-90
2022/05/07 11:20:50;;;;;;;;;;;;;;;11.31;56.10;100808.91;5065375;28;965;-90
2022/05/07 11:23:17;;;;;;;;;;;;;;;11.33;56.14;100812.22;5075331;28;1717;-90
2022/05/07 11:25:45;;;;;;;;;;;;;;;11.34;56.32;100803.06;5096225;28;2501;-92
2022/05/07 11:28:11;;;;;;;;;;;;;;;11.35;56.53;100812.81;5089036;28;3441;-90
2022/05/07 11:30:38;;;;;;;;;;;;;;;11.35;56.38;100802.03;5099630;28;2356;-91
2022/05/07 11:33:04;;;;;;;;;;;;;;;11.36;56.50;100804.50;5090988;28;2118;-90
2022/05/07 11:35:31;;;;;;;;;;;;;;;11.38;56.62;100806.97;5108618;28;1178;-92
2022/05/07 11:37:57;;;;;;;;;;;;;;;11.39;56.60;100805.13;5105095;28;3438;-92
2022/05/07 11:40:24;;;;;;;;;;;;;;;11.40;56.65;100807.59;5091752;28;4706;-93
2022/05/07 11:45:25;;;;;;;;;;;;;;;11.28;56.53;100785.91;5062991;28;1531;-92
2022/05/07 11:45:37;;;;;;;;;;;;;;;11.41;56.65;100814.63;5055904;28;1240;-92
2022/05/07 11:48:04;;;;;;;;;;;;;;;11.44;56.64;100818.75;5087922;28;2271;-92
2022/05/07 11:50:31;;;;;;;;;;;;;;;11.45;56.46;100818.56;5087962;28;1166;-90
2022/05/07 11:52:57;;;;;;;;;;;;;;;11.46;56.52;100819.38;5092403;28;4258;-90
2022/05/07 11:55:24;;;;;;;;;;;;;;;11.48;56.59;100825.41;5106407;28;5151;-93
2022/05/07 11:57:51;;;;;;;;;;;;;;;11.49;56.67;100818.94;5106630;28;2164;-92
2022/05/07 12:00:17;;;;;;;;;;;;;;;11.50;56.72;100823.28;5107086;28;1845;-92
2022/05/07 12:02:44;;;;;;;;;;;;;;;11.51;56.80;100816.88;5106081;28;2641;-92
2022/05/07 12:05:10;;;;;;;;;;;;;;;11.52;56.85;100830.09;5095275;28;1771;-92
2022/05/07 12:07:37;;;;;;;;;;;;;;;11.55;56.90;100834.25;5074841;28;1950;-90
2022/05/07 12:10:03;;;;;;;;;;;;;;;11.56;56.83;100830.53;5101357;28;1304;-92
2022/05/07 12:12:30;;;;;;;;;;;;;;;11.57;56.91;100829.47;5108167;28;1921;-90
2022/05/07 12:14:56;;;;;;;;;;;;;;;11.57;57.07;100830.28;5061602;28;4287;-92
2022/05/07 12:20:07;;;;;;;;;;;;;;;11.62;56.92;100839.59;5072990;28;1292;-91
2022/05/07 12:30:46;;;;;;;;;;;;;;;11.67;57.19;100832.47;5093755;28;2634;-92
2022/05/07 12:33:13;;;;;;;;;;;;;;;11.69;57.10;100838.50;5091103;28;2337;-91
2022/05/07 12:35:40;;;;;;;;;;;;;;;11.71;57.13;100838.28;5074170;28;1175;-92
2022/05/07 12:38:06;;;;;;;;;;;;;;;11.72;57.04;100835.34;5069857;28;4216;-91
2022/05/07 12:40:33;;;;;;;;;;;;;;;11.74;57.30;100844.06;5097839;28;2679;-90
2022/05/07 12:42:59;;;;;;;;;;;;;;;11.75;57.31;100834.09;5101788;28;3392;-90
2022/05/07 12:45:26;;;;;;;;;;;;;;;11.76;57.23;100841.13;5096234;28;1972;-91
2022/05/07 12:47:53;;;;;;;;;;;;;;;11.78;57.27;100839.03;5105870;28;1919;-90
2022/05/07 12:50:19;;;;;;;;;;;;;;;11.79;57.28;100830.75;5093338;28;1174;-91
2022/05/07 12:52:46;;;;;;;;;;;;;;;11.82;57.41;100841.09;5069595;28;2781;-92
2022/05/07 12:55:13;;;;;;;;;;;;;;;11.83;57.28;100841.91;5094201;28;1781;-90
2022/05/07 12:57:39;;;;;;;;;;;;;;;11.86;57.25;100840.69;5054503;28;2191;-91
2022/05/07 13:00:06;;;;;;;;;;;;;;;11.86;57.35;100841.50;5105730;28;1388;-90
2022/05/07 13:02:32;;;;;;;;;;;;;;;11.88;57.53;100841.28;5106819;28;2169;-91
2022/05/07 13:04:59;;;;;;;;;;;;;;;11.90;57.33;100841.88;5096634;28;4956;-91
2022/05/07 13:07:26;;;;;;;;;;;;;;;11.91;57.45;100836.28;5089703;28;1621;-90
2022/05/07 13:09:52;;;;;;;;;;;;;;;11.92;57.39;100835.22;5094483;28;2152;-92
2022/05/07 13:12:19;;;;;;;;;;;;;;;11.94;57.62;100834.97;5106814;28;1914;-91
2022/05/07 13:14:45;;;;;;;;;;;;;;;11.95;57.46;100834.78;5064245;28;2317;-92
2022/05/07 13:17:12;;;;;;;;;;;;;;;11.96;57.62;100841.00;5107616;28;1403;-90
2022/05/07 13:19:38;;;;;;;;;;;;;;;11.98;57.65;100844.31;5065089;28;2490;-90
2022/05/07 13:22:05;;;;;;;;;;;;;;;11.98;57.67;100839.72;5094807;28;1356;-90
2022/05/07 13:24:32;;;;;;;;;;;;;;;12.01;57.68;100843.88;5097627;28;4372;-90